sensor_id;sensor_type;location;lat;lon;timestamp;temperature;humidity
19878;DHT22;10101;52.204;9.910;2022-07-04T00:00:45;15.70;99.90
19878;DHT22;10101;52.204;9.910;2022-07-04T00:03:12;15.70;99.90
19878;DHT22;10101;52.204;9.910;2022-07-04T00:05:39;15.50;99.90
19878;DHT22;10101;52.204;9.910;2022-07-04T00:08:05;15.40;99.90
19878;DHT22;10101;52.204;9.910;2022-07-04T00:10:32;15.30;99.90
19878;DHT22;10101;52.204;9.910;2022-07-04T00:12:59;15.30;99.90
19878;DHT22;10101;52.204;9.910;2022-07-04T00:15:27;15.30;99.90
19878;DHT22;10101;52.204;9.910;2022-07-04T00:17:54;15.30;99.90
19878;DHT22;10101;52.204;9.910;2022-07-04T00:20:21;15.30;99.90
19878;DHT22;10101;52.204;9.910;2022-07-04T00:22:48;15.30;99.90
19878;DHT22;10101;52.204;9.910;2022-07-04T00:25:14;15.30;99.90
19878;DHT22;10101;52.204;9.910;2022-07-04T00:27:41;15.30;99.90
19878;DHT22;10101;52.204;9.910;2022-07-04T00:30:09;15.10;99.90
19878;DHT22;10101;52.204;9.910;2022-07-04T00:32:37;15.10;99.90
19878;DHT22;10101;52.204;9.910;2022-07-04T00:35:05;15.00;99.90
19878;DHT22;10101;52.204;9.910;2022-07-04T00:37:31;14.80;99.90
19878;DHT22;10101;52.204;9.910;2022-07-04T00:39:58;14.60;99.90
19878;DHT22;10101;52.204;9.910;2022-07-04T00:42:25;14.60;99.90
19878;DHT22;10101;52.204;9.910;2022-07-04T00:44:52;14.50;99.90
19878;DHT22;10101;52.204;9.910;2022-07-04T00:47:19;14.50;99.90
19878;DHT22;10101;52.204;9.910;2022-07-04T00:49:47;14.40;99.90
19878;DHT22;10101;52.204;9.910;2022-07-04T00:52:14;14.40;99.90
19878;DHT22;10101;52.204;9.910;2022-07-04T00:54:41;14.30;99.90
19878;DHT22;10101;52.204;9.910;2022-07-04T00:57:07;14.30;99.90
19878;DHT22;10101;52.204;9.910;2022-07-04T00:59:34;14.40;99.90
19878;DHT22;10101;52.204;9.910;2022-07-04T01:02:01;14.60;99.90
19878;DHT22;10101;52.204;9.910;2022-07-04T01:04:28;14.30;99.90
19878;DHT22;10101;52.204;9.910;2022-07-04T01:06:56;14.30;99.90
19878;DHT22;10101;52.204;9.910;2022-07-04T01:09:23;14.40;99.90
19878;DHT22;10101;52.204;9.910;2022-07-04T01:11:50;14.30;99.90
19878;DHT22;10101;52.204;9.910;2022-07-04T01:14:17;14.20;99.90
19878;DHT22;10101;52.204;9.910;2022-07-04T01:16:44;14.10;99.90
19878;DHT22;10101;52.204;9.910;2022-07-04T01:19:11;13.90;99.90
19878;DHT22;10101;52.204;9.910;2022-07-04T01:21:39;13.90;99.90
19878;DHT22;10101;52.204;9.910;2022-07-04T01:24:06;14.20;99.90
19878;DHT22;10101;52.204;9.910;2022-07-04T01:26:33;14.00;99.90
19878;DHT22;10101;52.204;9.910;2022-07-04T01:28:59;13.80;99.90
19878;DHT22;10101;52.204;9.910;2022-07-04T01:31:26;13.80;99.90
19878;DHT22;10101;52.204;9.910;2022-07-04T01:33:53;13.80;99.90
19878;DHT22;10101;52.204;9.910;2022-07-04T01:36:20;13.70;99.90
19878;DHT22;10101;52.204;9.910;2022-07-04T01:38:48;13.70;99.90
19878;DHT22;10101;52.204;9.910;2022-07-04T01:41:15;13.80;99.90
19878;DHT22;10101;52.204;9.910;2022-07-04T01:43:43;13.70;99.90
19878;DHT22;10101;52.204;9.910;2022-07-04T01:46:10;13.70;99.90
19878;DHT22;10101;52.204;9.910;2022-07-04T01:48:37;13.80;99.90
19878;DHT22;10101;52.204;9.910;2022-07-04T01:51:04;13.80;99.90
19878;DHT22;10101;52.204;9.910;2022-07-04T01:53:30;13.80;99.90
19878;DHT22;10101;52.204;9.910;2022-07-04T01:55:58;13.80;99.90
19878;DHT22;10101;52.204;9.910;2022-07-04T01:58:26;13.80;99.90
19878;DHT22;10101;52.204;9.910;2022-07-04T02:00:52;13.90;99.90
19878;DHT22;10101;52.204;9.910;2022-07-04T02:03:36;13.70;99.90
19878;DHT22;10101;52.204;9.910;2022-07-04T02:06:03;13.80;99.90
19878;DHT22;10101;52.204;9.910;2022-07-04T02:08:30;13.80;99.90
19878;DHT22;10101;52.204;9.910;2022-07-04T02:11:12;13.50;99.90
19878;DHT22;10101;52.204;9.910;2022-07-04T02:13:39;13.50;99.90
19878;DHT22;10101;52.204;9.910;2022-07-04T02:16:04;13.50;99.90
19878;DHT22;10101;52.204;9.910;2022-07-04T02:18:31;13.50;99.90
19878;DHT22;10101;52.204;9.910;2022-07-04T02:20:59;13.50;99.90
19878;DHT22;10101;52.204;9.910;2022-07-04T02:23:26;13.50;99.90
19878;DHT22;10101;52.204;9.910;2022-07-04T02:25:52;13.50;99.90
19878;DHT22;10101;52.204;9.910;2022-07-04T02:28:20;13.40;99.90
19878;DHT22;10101;52.204;9.910;2022-07-04T02:30:47;13.30;99.90
19878;DHT22;10101;52.204;9.910;2022-07-04T02:33:14;13.70;99.90
19878;DHT22;10101;52.204;9.910;2022-07-04T02:35:41;13.50;99.90
19878;DHT22;10101;52.204;9.910;2022-07-04T02:38:07;13.50;99.90
19878;DHT22;10101;52.204;9.910;2022-07-04T02:40:34;13.60;99.90
19878;DHT22;10101;52.204;9.910;2022-07-04T02:43:01;13.60;99.90
19878;DHT22;10101;52.204;9.910;2022-07-04T02:45:29;13.60;99.90
19878;DHT22;10101;52.204;9.910;2022-07-04T02:47:56;13.60;99.90
19878;DHT22;10101;52.204;9.910;2022-07-04T02:50:22;13.60;99.90
19878;DHT22;10101;52.204;9.910;2022-07-04T02:52:49;13.50;99.90
19878;DHT22;10101;52.204;9.910;2022-07-04T02:55:16;13.60;99.90
19878;DHT22;10101;52.204;9.910;2022-07-04T02:57:43;13.50;99.90
19878;DHT22;10101;52.204;9.910;2022-07-04T03:00:11;13.50;99.90
19878;DHT22;10101;52.204;9.910;2022-07-04T03:02:39;13.50;99.90
19878;DHT22;10101;52.204;9.910;2022-07-04T03:05:07;13.50;99.90
19878;DHT22;10101;52.204;9.910;2022-07-04T03:07:33;13.50;99.90
19878;DHT22;10101;52.204;9.910;2022-07-04T03:10:00;13.40;99.90
19878;DHT22;10101;52.204;9.910;2022-07-04T03:12:27;13.50;99.90
19878;DHT22;10101;52.204;9.910;2022-07-04T03:14:54;13.40;99.90
19878;DHT22;10101;52.204;9.910;2022-07-04T03:17:21;13.40;99.90
19878;DHT22;10101;52.204;9.910;2022-07-04T03:19:49;13.40;99.90
19878;DHT22;10101;52.204;9.910;2022-07-04T03:22:16;13.40;99.90
19878;DHT22;10101;52.204;9.910;2022-07-04T03:24:43;13.30;99.90
19878;DHT22;10101;52.204;9.910;2022-07-04T03:27:10;13.20;99.90
19878;DHT22;10101;52.204;9.910;2022-07-04T03:29:37;13.20;99.90
19878;DHT22;10101;52.204;9.910;2022-07-04T03:32:05;13.20;99.90
19878;DHT22;10101;52.204;9.910;2022-07-04T03:34:32;13.30;99.90
19878;DHT22;10101;52.204;9.910;2022-07-04T03:37:00;13.30;99.90
19878;DHT22;10101;52.204;9.910;2022-07-04T03:39:26;13.30;99.90
19878;DHT22;10101;52.204;9.910;2022-07-04T03:41:53;13.50;99.90
19878;DHT22;10101;52.204;9.910;2022-07-04T03:44:20;13.50;99.90
19878;DHT22;10101;52.204;9.910;2022-07-04T03:46:47;13.50;99.90
19878;DHT22;10101;52.204;9.910;2022-07-04T03:49:14;13.60;99.90
19878;DHT22;10101;52.204;9.910;2022-07-04T03:51:41;13.60;99.90
19878;DHT22;10101;52.204;9.910;2022-07-04T03:54:09;13.60;99.90
19878;DHT22;10101;52.204;9.910;2022-07-04T03:56:36;13.60;99.90
19878;DHT22;10101;52.204;9.910;2022-07-04T03:59:02;13.60;99.90
19878;DHT22;10101;52.204;9.910;2022-07-04T04:01:29;13.70;99.90
19878;DHT22;10101;52.204;9.910;2022-07-04T04:03:56;13.70;99.90
19878;DHT22;10101;52.204;9.910;2022-07-04T04:06:45;13.70;99.90
19878;DHT22;10101;52.204;9.910;2022-07-04T04:09:14;13.80;99.90
19878;DHT22;10101;52.204;9.910;2022-07-04T04:11:44;13.90;99.90
19878;DHT22;10101;52.204;9.910;2022-07-04T04:14:11;14.00;99.90
19878;DHT22;10101;52.204;9.910;2022-07-04T04:16:38;14.00;99.90
19878;DHT22;10101;52.204;9.910;2022-07-04T04:19:06;14.00;99.90
19878;DHT22;10101;52.204;9.910;2022-07-04T04:21:33;14.00;99.90
19878;DHT22;10101;52.204;9.910;2022-07-04T04:24:00;14.00;99.90
19878;DHT22;10101;52.204;9.910;2022-07-04T04:26:29;14.00;99.90
19878;DHT22;10101;52.204;9.910;2022-07-04T04:28:56;14.10;99.90
19878;DHT22;10101;52.204;9.910;2022-07-04T04:31:23;14.10;99.90
19878;DHT22;10101;52.204;9.910;2022-07-04T04:33:50;14.10;99.90
19878;DHT22;10101;52.204;9.910;2022-07-04T04:36:17;14.10;99.90
19878;DHT22;10101;52.204;9.910;2022-07-04T04:38:44;14.20;99.90
19878;DHT22;10101;52.204;9.910;2022-07-04T04:41:10;14.10;99.90
19878;DHT22;10101;52.204;9.910;2022-07-04T04:43:39;14.20;99.90
19878;DHT22;10101;52.204;9.910;2022-07-04T04:46:05;14.20;99.90
19878;DHT22;10101;52.204;9.910;2022-07-04T04:48:32;14.20;99.90
19878;DHT22;10101;52.204;9.910;2022-07-04T04:50:59;14.40;99.90
19878;DHT22;10101;52.204;9.910;2022-07-04T04:53:25;14.50;99.90
19878;DHT22;10101;52.204;9.910;2022-07-04T04:55:52;14.60;99.90
19878;DHT22;10101;52.204;9.910;2022-07-04T04:58:19;14.60;99.90
19878;DHT22;10101;52.204;9.910;2022-07-04T05:00:48;14.70;99.90
19878;DHT22;10101;52.204;9.910;2022-07-04T05:03:15;14.70;99.90
19878;DHT22;10101;52.204;9.910;2022-07-04T05:05:42;14.90;99.90
19878;DHT22;10101;52.204;9.910;2022-07-04T05:08:09;14.90;99.90
19878;DHT22;10101;52.204;9.910;2022-07-04T05:10:36;15.00;99.90
19878;DHT22;10101;52.204;9.910;2022-07-04T05:13:03;15.10;99.90
19878;DHT22;10101;52.204;9.910;2022-07-04T05:15:30;15.10;99.90
19878;DHT22;10101;52.204;9.910;2022-07-04T05:17:58;15.20;99.90
19878;DHT22;10101;52.204;9.910;2022-07-04T05:20:25;15.40;99.90
19878;DHT22;10101;52.204;9.910;2022-07-04T05:22:52;15.50;99.90
19878;DHT22;10101;52.204;9.910;2022-07-04T05:25:19;15.50;99.90
19878;DHT22;10101;52.204;9.910;2022-07-04T05:27:46;15.60;99.90
19878;DHT22;10101;52.204;9.910;2022-07-04T05:30:13;15.80;99.90
19878;DHT22;10101;52.204;9.910;2022-07-04T05:32:40;15.70;99.90
19878;DHT22;10101;52.204;9.910;2022-07-04T05:35:08;15.80;99.90
19878;DHT22;10101;52.204;9.910;2022-07-04T05:37:35;16.00;99.90
19878;DHT22;10101;52.204;9.910;2022-07-04T05:40:02;16.20;99.90
19878;DHT22;10101;52.204;9.910;2022-07-04T05:42:29;16.20;99.90
19878;DHT22;10101;52.204;9.910;2022-07-04T05:44:56;16.30;99.90
19878;DHT22;10101;52.204;9.910;2022-07-04T05:47:23;16.40;99.90
19878;DHT22;10101;52.204;9.910;2022-07-04T05:49:50;16.50;99.90
19878;DHT22;10101;52.204;9.910;2022-07-04T05:52:18;16.60;99.90
19878;DHT22;10101;52.204;9.910;2022-07-04T05:54:46;16.60;99.90
19878;DHT22;10101;52.204;9.910;2022-07-04T05:57:13;16.80;99.90
19878;DHT22;10101;52.204;9.910;2022-07-04T05:59:40;16.80;99.90
19878;DHT22;10101;52.204;9.910;2022-07-04T06:02:07;16.90;99.90
19878;DHT22;10101;52.204;9.910;2022-07-04T06:04:34;17.00;99.90
19878;DHT22;10101;52.204;9.910;2022-07-04T06:07:01;17.00;99.90
19878;DHT22;10101;52.204;9.910;2022-07-04T06:09:29;17.00;99.90
19878;DHT22;10101;52.204;9.910;2022-07-04T06:11:55;17.10;99.90
19878;DHT22;10101;52.204;9.910;2022-07-04T06:14:22;17.30;99.90
19878;DHT22;10101;52.204;9.910;2022-07-04T06:16:49;17.50;99.90
19878;DHT22;10101;52.204;9.910;2022-07-04T06:19:16;17.50;99.90
19878;DHT22;10101;52.204;9.910;2022-07-04T06:21:43;17.50;99.90
19878;DHT22;10101;52.204;9.910;2022-07-04T06:24:10;17.50;99.90
19878;DHT22;10101;52.204;9.910;2022-07-04T06:26:38;17.80;99.90
19878;DHT22;10101;52.204;9.910;2022-07-04T06:29:05;17.90;99.90
19878;DHT22;10101;52.204;9.910;2022-07-04T06:31:32;17.80;99.90
19878;DHT22;10101;52.204;9.910;2022-07-04T06:33:59;17.80;99.90
19878;DHT22;10101;52.204;9.910;2022-07-04T06:36:44;18.00;99.90
19878;DHT22;10101;52.204;9.910;2022-07-04T06:39:11;18.20;99.90
19878;DHT22;10101;52.204;9.910;2022-07-04T06:41:39;18.40;99.90
19878;DHT22;10101;52.204;9.910;2022-07-04T06:44:06;18.50;99.90
19878;DHT22;10101;52.204;9.910;2022-07-04T06:46:33;18.30;99.90
19878;DHT22;10101;52.204;9.910;2022-07-04T06:48:59;18.10;99.90
19878;DHT22;10101;52.204;9.910;2022-07-04T06:51:26;17.80;99.90
19878;DHT22;10101;52.204;9.910;2022-07-04T06:53:53;17.30;99.90
19878;DHT22;10101;52.204;9.910;2022-07-04T06:56:20;17.60;99.90
19878;DHT22;10101;52.204;9.910;2022-07-04T06:58:48;17.90;99.90
19878;DHT22;10101;52.204;9.910;2022-07-04T07:01:15;17.90;99.90
19878;DHT22;10101;52.204;9.910;2022-07-04T07:03:42;18.20;99.90
19878;DHT22;10101;52.204;9.910;2022-07-04T07:06:09;18.50;99.90
19878;DHT22;10101;52.204;9.910;2022-07-04T07:08:36;18.50;99.90
19878;DHT22;10101;52.204;9.910;2022-07-04T07:11:02;18.50;99.90
19878;DHT22;10101;52.204;9.910;2022-07-04T07:13:39;18.60;99.90
19878;DHT22;10101;52.204;9.910;2022-07-04T07:16:07;18.60;99.90
19878;DHT22;10101;52.204;9.910;2022-07-04T07:18:34;18.10;99.90
19878;DHT22;10101;52.204;9.910;2022-07-04T07:21:01;18.10;99.90
19878;DHT22;10101;52.204;9.910;2022-07-04T07:23:28;18.20;99.90
19878;DHT22;10101;52.204;9.910;2022-07-04T07:25:54;18.50;99.90
19878;DHT22;10101;52.204;9.910;2022-07-04T07:28:21;18.50;99.90
19878;DHT22;10101;52.204;9.910;2022-07-04T07:30:48;18.70;1.00
19878;DHT22;10101;52.204;9.910;2022-07-04T07:33:16;19.00;99.90
19878;DHT22;10101;52.204;9.910;2022-07-04T07:35:43;19.10;1.00
19878;DHT22;10101;52.204;9.910;2022-07-04T07:38:10;19.20;1.00
19878;DHT22;10101;52.204;9.910;2022-07-04T07:40:37;19.10;99.90
19878;DHT22;10101;52.204;9.910;2022-07-04T07:43:03;19.30;1.00
19878;DHT22;10101;52.204;9.910;2022-07-04T07:45:30;19.10;1.00
19878;DHT22;10101;52.204;9.910;2022-07-04T07:47:57;18.80;99.90
19878;DHT22;10101;52.204;9.910;2022-07-04T07:50:25;18.70;1.00
19878;DHT22;10101;52.204;9.910;2022-07-04T07:52:52;18.70;99.90
19878;DHT22;10101;52.204;9.910;2022-07-04T07:55:19;18.70;99.90
19878;DHT22;10101;52.204;9.910;2022-07-04T07:57:45;19.10;33.80
19878;DHT22;10101;52.204;9.910;2022-07-04T08:00:13;19.20;1.00
19878;DHT22;10101;52.204;9.910;2022-07-04T08:02:40;19.20;99.90
19878;DHT22;10101;52.204;9.910;2022-07-04T08:05:26;19.00;60.30
19878;DHT22;10101;52.204;9.910;2022-07-04T08:07:52;18.90;1.00
19878;DHT22;10101;52.204;9.910;2022-07-04T08:10:19;18.60;1.00
19878;DHT22;10101;52.204;9.910;2022-07-04T08:12:46;18.80;1.00
19878;DHT22;10101;52.204;9.910;2022-07-04T08:15:13;18.90;99.90
19878;DHT22;10101;52.204;9.910;2022-07-04T08:17:40;19.40;1.00
19878;DHT22;10101;52.204;9.910;2022-07-04T08:20:08;19.60;99.90
19878;DHT22;10101;52.204;9.910;2022-07-04T08:22:36;19.60;1.00
19878;DHT22;10101;52.204;9.910;2022-07-04T08:25:03;20.00;1.00
19878;DHT22;10101;52.204;9.910;2022-07-04T08:27:30;20.20;1.00
19878;DHT22;10101;52.204;9.910;2022-07-04T08:29:57;20.30;99.90
19878;DHT22;10101;52.204;9.910;2022-07-04T08:32:24;20.50;99.90
19878;DHT22;10101;52.204;9.910;2022-07-04T08:34:50;20.40;1.00
19878;DHT22;10101;52.204;9.910;2022-07-04T08:37:18;20.90;1.00
19878;DHT22;10101;52.204;9.910;2022-07-04T08:39:46;20.60;1.00
19878;DHT22;10101;52.204;9.910;2022-07-04T08:42:16;20.50;1.00
19878;DHT22;10101;52.204;9.910;2022-07-04T08:44:48;20.70;1.00
19878;DHT22;10101;52.204;9.910;2022-07-04T08:47:17;20.50;99.90
19878;DHT22;10101;52.204;9.910;2022-07-04T08:49:50;20.60;99.90
19878;DHT22;10101;52.204;9.910;2022-07-04T08:52:27;20.50;99.90
19878;DHT22;10101;52.204;9.910;2022-07-04T08:54:59;20.90;99.90
19878;DHT22;10101;52.204;9.910;2022-07-04T08:57:46;21.20;99.90
19878;DHT22;10101;52.204;9.910;2022-07-04T09:00:30;21.60;99.90
19878;DHT22;10101;52.204;9.910;2022-07-04T09:02:59;21.50;99.90
19878;DHT22;10101;52.204;9.910;2022-07-04T09:05:27;20.80;33.40
19878;DHT22;10101;52.204;9.910;2022-07-04T09:07:54;20.50;1.00
19878;DHT22;10101;52.204;9.910;2022-07-04T09:10:23;20.30;1.00
19878;DHT22;10101;52.204;9.910;2022-07-04T09:12:51;20.10;1.00
19878;DHT22;10101;52.204;9.910;2022-07-04T09:15:18;20.10;1.00
19878;DHT22;10101;52.204;9.910;2022-07-04T09:17:45;20.30;1.00
19878;DHT22;10101;52.204;9.910;2022-07-04T09:20:14;20.50;1.00
19878;DHT22;10101;52.204;9.910;2022-07-04T09:22:42;20.50;1.00
19878;DHT22;10101;52.204;9.910;2022-07-04T09:25:09;20.80;1.00
19878;DHT22;10101;52.204;9.910;2022-07-04T09:27:41;21.00;1.00
19878;DHT22;10101;52.204;9.910;2022-07-04T09:30:11;21.40;1.00
19878;DHT22;10101;52.204;9.910;2022-07-04T09:32:39;21.60;1.00
19878;DHT22;10101;52.204;9.910;2022-07-04T09:35:07;20.80;1.00
19878;DHT22;10101;52.204;9.910;2022-07-04T09:37:39;20.60;1.00
19878;DHT22;10101;52.204;9.910;2022-07-04T09:40:09;21.00;1.00
19878;DHT22;10101;52.204;9.910;2022-07-04T09:42:41;20.90;1.00
19878;DHT22;10101;52.204;9.910;2022-07-04T09:45:10;20.50;1.00
19878;DHT22;10101;52.204;9.910;2022-07-04T09:47:38;20.30;99.90
19878;DHT22;10101;52.204;9.910;2022-07-04T09:50:07;20.20;99.90
19878;DHT22;10101;52.204;9.910;2022-07-04T09:52:45;20.70;99.90
19878;DHT22;10101;52.204;9.910;2022-07-04T09:55:12;21.10;99.90
19878;DHT22;10101;52.204;9.910;2022-07-04T09:57:45;21.30;99.90
19878;DHT22;10101;52.204;9.910;2022-07-04T10:00:20;21.40;99.90
19878;DHT22;10101;52.204;9.910;2022-07-04T10:02:47;21.40;99.90
19878;DHT22;10101;52.204;9.910;2022-07-04T10:05:19;21.30;99.90
19878;DHT22;10101;52.204;9.910;2022-07-04T10:07:47;21.40;99.90
19878;DHT22;10101;52.204;9.910;2022-07-04T10:10:25;21.60;99.90
19878;DHT22;10101;52.204;9.910;2022-07-04T10:12:55;21.50;80.80
19878;DHT22;10101;52.204;9.910;2022-07-04T10:15:23;21.50;26.70
19878;DHT22;10101;52.204;9.910;2022-07-04T10:17:50;21.50;1.00
19878;DHT22;10101;52.204;9.910;2022-07-04T10:20:17;21.50;1.00
19878;DHT22;10101;52.204;9.910;2022-07-04T10:22:44;21.70;1.00
19878;DHT22;10101;52.204;9.910;2022-07-04T10:25:12;22.00;1.00
19878;DHT22;10101;52.204;9.910;2022-07-04T10:27:39;21.90;1.00
19878;DHT22;10101;52.204;9.910;2022-07-04T10:30:12;22.00;1.00
19878;DHT22;10101;52.204;9.910;2022-07-04T10:32:40;22.50;1.00
19878;DHT22;10101;52.204;9.910;2022-07-04T10:35:13;22.50;1.00
19878;DHT22;10101;52.204;9.910;2022-07-04T10:38:03;22.50;1.00
19878;DHT22;10101;52.204;9.910;2022-07-04T10:40:44;22.60;1.00
19878;DHT22;10101;52.204;9.910;2022-07-04T10:46:42;22.00;1.00
19878;DHT22;10101;52.204;9.910;2022-07-04T10:49:24;22.30;99.90
19878;DHT22;10101;52.204;9.910;2022-07-04T10:51:52;22.40;99.90
19878;DHT22;10101;52.204;9.910;2022-07-04T10:54:21;22.70;99.90
19878;DHT22;10101;52.204;9.910;2022-07-04T10:56:53;22.40;99.90
19878;DHT22;10101;52.204;9.910;2022-07-04T10:59:23;22.30;99.90
19878;DHT22;10101;52.204;9.910;2022-07-04T11:04:51;22.20;99.90
19878;DHT22;10101;52.204;9.910;2022-07-04T11:07:20;22.70;99.90
19878;DHT22;10101;52.204;9.910;2022-07-04T11:10:19;22.30;99.90
19878;DHT22;10101;52.204;9.910;2022-07-04T11:13:18;22.50;99.90
19878;DHT22;10101;52.204;9.910;2022-07-04T11:16:00;22.70;99.90
19878;DHT22;10101;52.204;9.910;2022-07-04T11:18:29;22.70;97.70
19878;DHT22;10101;52.204;9.910;2022-07-04T11:20:56;22.80;87.90
19878;DHT22;10101;52.204;9.910;2022-07-04T11:23:23;22.90;93.40
19878;DHT22;10101;52.204;9.910;2022-07-04T11:25:50;22.50;55.70
19878;DHT22;10101;52.204;9.910;2022-07-04T11:28:20;22.50;36.00
19878;DHT22;10101;52.204;9.910;2022-07-04T11:30:50;22.80;19.50
19878;DHT22;10101;52.204;9.910;2022-07-04T11:33:18;22.70;16.90
19878;DHT22;10101;52.204;9.910;2022-07-04T11:36:03;22.40;1.00
19878;DHT22;10101;52.204;9.910;2022-07-04T11:38:53;22.40;1.00
19878;DHT22;10101;52.204;9.910;2022-07-04T11:41:22;22.40;1.00
19878;DHT22;10101;52.204;9.910;2022-07-04T11:44:09;22.30;1.00
19878;DHT22;10101;52.204;9.910;2022-07-04T11:47:09;22.10;1.00
19878;DHT22;10101;52.204;9.910;2022-07-04T11:49:40;22.30;1.00
19878;DHT22;10101;52.204;9.910;2022-07-04T11:52:08;22.70;1.00
19878;DHT22;10101;52.204;9.910;2022-07-04T11:54:35;22.90;1.00
19878;DHT22;10101;52.204;9.910;2022-07-04T11:57:13;23.00;1.00
19878;DHT22;10101;52.204;9.910;2022-07-04T11:59:40;23.10;1.00
19878;DHT22;10101;52.204;9.910;2022-07-04T12:02:13;23.40;1.00
19878;DHT22;10101;52.204;9.910;2022-07-04T12:04:41;23.30;1.00
19878;DHT22;10101;52.204;9.910;2022-07-04T12:07:11;23.50;1.00
19878;DHT22;10101;52.204;9.910;2022-07-04T12:09:39;23.80;1.00
19878;DHT22;10101;52.204;9.910;2022-07-04T12:12:06;23.80;1.00
19878;DHT22;10101;52.204;9.910;2022-07-04T12:14:33;24.40;1.00
19878;DHT22;10101;52.204;9.910;2022-07-04T12:17:11;24.50;1.00
19878;DHT22;10101;52.204;9.910;2022-07-04T12:19:49;24.00;1.00
19878;DHT22;10101;52.204;9.910;2022-07-04T12:22:30;24.20;1.00
19878;DHT22;10101;52.204;9.910;2022-07-04T12:24:57;23.70;1.00
19878;DHT22;10101;52.204;9.910;2022-07-04T12:27:24;23.50;1.00
19878;DHT22;10101;52.204;9.910;2022-07-04T12:29:52;23.60;1.00
19878;DHT22;10101;52.204;9.910;2022-07-04T12:32:20;23.50;1.00
19878;DHT22;10101;52.204;9.910;2022-07-04T12:34:48;23.10;1.00
19878;DHT22;10101;52.204;9.910;2022-07-04T12:37:16;22.70;1.00
19878;DHT22;10101;52.204;9.910;2022-07-04T12:39:44;22.80;1.00
19878;DHT22;10101;52.204;9.910;2022-07-04T12:42:13;22.50;1.00
19878;DHT22;10101;52.204;9.910;2022-07-04T12:44:41;22.60;1.00
19878;DHT22;10101;52.204;9.910;2022-07-04T12:47:09;22.50;1.00
19878;DHT22;10101;52.204;9.910;2022-07-04T12:49:36;22.60;1.00
19878;DHT22;10101;52.204;9.910;2022-07-04T12:52:08;22.70;1.00
19878;DHT22;10101;52.204;9.910;2022-07-04T12:54:35;23.50;1.00
19878;DHT22;10101;52.204;9.910;2022-07-04T12:57:10;23.60;1.00
19878;DHT22;10101;52.204;9.910;2022-07-04T12:59:38;23.00;1.00
19878;DHT22;10101;52.204;9.910;2022-07-04T13:02:05;23.30;1.00
19878;DHT22;10101;52.204;9.910;2022-07-04T13:04:33;23.50;1.00
19878;DHT22;10101;52.204;9.910;2022-07-04T13:07:11;23.40;1.00
19878;DHT22;10101;52.204;9.910;2022-07-04T13:09:39;24.40;1.00
19878;DHT22;10101;52.204;9.910;2022-07-04T13:12:08;24.20;1.00
19878;DHT22;10101;52.204;9.910;2022-07-04T13:14:55;23.50;1.00
19878;DHT22;10101;52.204;9.910;2022-07-04T13:17:23;23.20;1.00
19878;DHT22;10101;52.204;9.910;2022-07-04T13:19:50;23.40;1.00
19878;DHT22;10101;52.204;9.910;2022-07-04T13:22:19;24.00;1.00
19878;DHT22;10101;52.204;9.910;2022-07-04T13:24:46;24.50;1.00
19878;DHT22;10101;52.204;9.910;2022-07-04T13:27:15;24.80;1.00
19878;DHT22;10101;52.204;9.910;2022-07-04T13:29:42;24.70;1.00
19878;DHT22;10101;52.204;9.910;2022-07-04T13:32:09;24.70;1.00
19878;DHT22;10101;52.204;9.910;2022-07-04T13:34:36;25.10;1.00
19878;DHT22;10101;52.204;9.910;2022-07-04T13:37:03;25.20;1.00
19878;DHT22;10101;52.204;9.910;2022-07-04T13:39:31;25.20;1.00
19878;DHT22;10101;52.204;9.910;2022-07-04T13:41:58;25.80;1.00
19878;DHT22;10101;52.204;9.910;2022-07-04T13:44:26;25.90;1.00
19878;DHT22;10101;52.204;9.910;2022-07-04T13:46:53;25.80;1.00
19878;DHT22;10101;52.204;9.910;2022-07-04T13:49:21;26.00;1.00
19878;DHT22;10101;52.204;9.910;2022-07-04T13:51:48;26.20;1.00
19878;DHT22;10101;52.204;9.910;2022-07-04T13:54:15;26.10;1.00
19878;DHT22;10101;52.204;9.910;2022-07-04T13:56:42;26.30;1.00
19878;DHT22;10101;52.204;9.910;2022-07-04T13:59:09;26.70;1.00
19878;DHT22;10101;52.204;9.910;2022-07-04T14:01:37;26.20;99.90
19878;DHT22;10101;52.204;9.910;2022-07-04T14:04:05;26.10;99.90
19878;DHT22;10101;52.204;9.910;2022-07-04T14:06:32;26.70;99.90
19878;DHT22;10101;52.204;9.910;2022-07-04T14:08:59;26.40;99.90
19878;DHT22;10101;52.204;9.910;2022-07-04T14:11:26;26.90;99.90
19878;DHT22;10101;52.204;9.910;2022-07-04T14:13:52;26.40;99.90
19878;DHT22;10101;52.204;9.910;2022-07-04T14:16:19;26.10;99.90
19878;DHT22;10101;52.204;9.910;2022-07-04T14:18:47;25.40;99.90
19878;DHT22;10101;52.204;9.910;2022-07-04T14:21:14;24.50;99.90
19878;DHT22;10101;52.204;9.910;2022-07-04T14:23:41;24.90;99.90
19878;DHT22;10101;52.204;9.910;2022-07-04T14:26:09;25.70;99.90
19878;DHT22;10101;52.204;9.910;2022-07-04T14:28:36;26.30;99.90
19878;DHT22;10101;52.204;9.910;2022-07-04T14:31:03;26.60;99.90
19878;DHT22;10101;52.204;9.910;2022-07-04T14:33:30;26.70;99.90
19878;DHT22;10101;52.204;9.910;2022-07-04T14:35:59;27.00;99.90
19878;DHT22;10101;52.204;9.910;2022-07-04T14:38:26;27.60;99.90
19878;DHT22;10101;52.204;9.910;2022-07-04T14:40:53;26.60;99.90
19878;DHT22;10101;52.204;9.910;2022-07-04T14:43:20;26.30;99.90
19878;DHT22;10101;52.204;9.910;2022-07-04T14:45:47;27.10;99.90
19878;DHT22;10101;52.204;9.910;2022-07-04T14:48:13;27.70;99.90
19878;DHT22;10101;52.204;9.910;2022-07-04T14:50:40;28.10;99.90
19878;DHT22;10101;52.204;9.910;2022-07-04T14:53:09;27.90;99.90
19878;DHT22;10101;52.204;9.910;2022-07-04T14:55:36;26.50;99.90
19878;DHT22;10101;52.204;9.910;2022-07-04T14:58:03;26.40;99.90
19878;DHT22;10101;52.204;9.910;2022-07-04T15:00:30;27.20;99.90
19878;DHT22;10101;52.204;9.910;2022-07-04T15:02:56;27.10;99.90
19878;DHT22;10101;52.204;9.910;2022-07-04T15:05:23;26.20;99.90
19878;DHT22;10101;52.204;9.910;2022-07-04T15:07:50;26.80;99.90
19878;DHT22;10101;52.204;9.910;2022-07-04T15:10:21;28.10;99.90
19878;DHT22;10101;52.204;9.910;2022-07-04T15:12:47;29.40;99.90
19878;DHT22;10101;52.204;9.910;2022-07-04T15:15:14;29.60;99.90
19878;DHT22;10101;52.204;9.910;2022-07-04T15:17:41;29.50;99.90
19878;DHT22;10101;52.204;9.910;2022-07-04T15:20:09;27.90;99.90
19878;DHT22;10101;52.204;9.910;2022-07-04T15:22:53;28.60;99.90
19878;DHT22;10101;52.204;9.910;2022-07-04T15:25:39;30.10;99.90
19878;DHT22;10101;52.204;9.910;2022-07-04T15:28:06;29.80;99.90
19878;DHT22;10101;52.204;9.910;2022-07-04T15:30:32;30.50;99.90
19878;DHT22;10101;52.204;9.910;2022-07-04T15:32:59;29.80;99.90
19878;DHT22;10101;52.204;9.910;2022-07-04T15:35:26;28.80;99.90
19878;DHT22;10101;52.204;9.910;2022-07-04T15:37:53;28.30;99.90
19878;DHT22;10101;52.204;9.910;2022-07-04T15:40:20;27.00;99.90
19878;DHT22;10101;52.204;9.910;2022-07-04T15:42:48;28.60;99.90
19878;DHT22;10101;52.204;9.910;2022-07-04T15:45:15;29.90;99.90
19878;DHT22;10101;52.204;9.910;2022-07-04T15:47:42;29.30;99.90
19878;DHT22;10101;52.204;9.910;2022-07-04T15:50:09;28.70;99.90